sensor_id;sensor_type;location;lat;lon;timestamp;P1;durP1;ratioP1;P2;durP2;ratioP2
4980;SDS011;2507;50.392;7.482;2024-03-02T00:00:20;3.80;;;3.50;;
4980;SDS011;2507;50.392;7.482;2024-03-02T00:02:47;4.00;;;3.70;;
4980;SDS011;2507;50.392;7.482;2024-03-02T00:05:15;3.53;;;3.23;;
4980;SDS011;2507;50.392;7.482;2024-03-02T00:07:47;3.20;;;3.00;;
4980;SDS011;2507;50.392;7.482;2024-03-02T00:10:33;3.40;;;3.17;;
4980;SDS011;2507;50.392;7.482;2024-03-02T00:13:04;3.23;;;3.03;;
4980;SDS011;2507;50.392;7.482;2024-03-02T00:18:21;2.30;;;2.20;;
4980;SDS011;2507;50.392;7.482;2024-03-02T00:20:52;2.90;;;2.60;;
4980;SDS011;2507;50.392;7.482;2024-03-02T00:23:21;2.50;;;2.40;;
4980;SDS011;2507;50.392;7.482;2024-03-02T00:25:48;2.97;;;2.77;;
4980;SDS011;2507;50.392;7.482;2024-03-02T00:33:33;3.07;;;2.20;;
4980;SDS011;2507;50.392;7.482;2024-03-02T00:36:01;2.30;;;1.90;;
4980;SDS011;2507;50.392;7.482;2024-03-02T00:38:28;2.10;;;2.00;;
4980;SDS011;2507;50.392;7.482;2024-03-02T00:40:54;2.33;;;2.13;;
4980;SDS011;2507;50.392;7.482;2024-03-02T00:46:09;2.13;;;1.90;;
4980;SDS011;2507;50.392;7.482;2024-03-02T00:48:38;2.27;;;2.17;;
4980;SDS011;2507;50.392;7.482;2024-03-02T00:51:11;2.23;;;2.13;;
4980;SDS011;2507;50.392;7.482;2024-03-02T00:53:36;2.53;;;2.43;;
4980;SDS011;2507;50.392;7.482;2024-03-02T00:56:02;2.30;;;2.20;;
4980;SDS011;2507;50.392;7.482;2024-03-02T00:58:28;2.20;;;2.10;;
4980;SDS011;2507;50.392;7.482;2024-03-02T01:00:53;2.13;;;2.03;;
4980;SDS011;2507;50.392;7.482;2024-03-02T01:03:18;2.33;;;2.23;;
4980;SDS011;2507;50.392;7.482;2024-03-02T01:05:44;2.07;;;1.97;;
4980;SDS011;2507;50.392;7.482;2024-03-02T01:08:10;3.13;;;2.13;;
4980;SDS011;2507;50.392;7.482;2024-03-02T01:10:35;2.30;;;2.20;;
4980;SDS011;2507;50.392;7.482;2024-03-02T01:13:03;2.20;;;2.10;;
4980;SDS011;2507;50.392;7.482;2024-03-02T01:15:28;3.70;;;2.20;;
4980;SDS011;2507;50.392;7.482;2024-03-02T01:17:54;3.03;;;2.30;;
4980;SDS011;2507;50.392;7.482;2024-03-02T01:20:19;2.30;;;2.20;;
4980;SDS011;2507;50.392;7.482;2024-03-02T01:22:45;2.27;;;2.17;;
4980;SDS011;2507;50.392;7.482;2024-03-02T01:25:10;2.70;;;2.60;;
4980;SDS011;2507;50.392;7.482;2024-03-02T01:27:35;2.43;;;2.33;;
4980;SDS011;2507;50.392;7.482;2024-03-02T01:30:00;2.00;;;1.97;;
4980;SDS011;2507;50.392;7.482;2024-03-02T01:32:26;2.20;;;2.10;;
4980;SDS011;2507;50.392;7.482;2024-03-02T01:34:51;2.57;;;2.47;;
4980;SDS011;2507;50.392;7.482;2024-03-02T01:37:17;2.80;;;2.60;;
4980;SDS011;2507;50.392;7.482;2024-03-02T01:39:42;2.30;;;2.20;;
4980;SDS011;2507;50.392;7.482;2024-03-02T01:42:07;2.43;;;2.33;;
4980;SDS011;2507;50.392;7.482;2024-03-02T01:44:33;2.97;;;2.23;;
4980;SDS011;2507;50.392;7.482;2024-03-02T01:46:58;2.33;;;2.23;;
4980;SDS011;2507;50.392;7.482;2024-03-02T01:49:23;2.37;;;2.27;;
4980;SDS011;2507;50.392;7.482;2024-03-02T01:51:49;2.43;;;2.33;;
4980;SDS011;2507;50.392;7.482;2024-03-02T01:54:14;2.37;;;2.17;;
4980;SDS011;2507;50.392;7.482;2024-03-02T01:56:39;2.40;;;2.30;;
4980;SDS011;2507;50.392;7.482;2024-03-02T01:59:05;2.97;;;2.77;;
4980;SDS011;2507;50.392;7.482;2024-03-02T02:01:31;2.97;;;2.77;;
4980;SDS011;2507;50.392;7.482;2024-03-02T02:03:56;2.37;;;2.27;;
4980;SDS011;2507;50.392;7.482;2024-03-02T02:06:21;2.40;;;2.30;;
4980;SDS011;2507;50.392;7.482;2024-03-02T02:08:46;2.53;;;2.43;;
4980;SDS011;2507;50.392;7.482;2024-03-02T02:11:14;3.20;;;3.03;;
4980;SDS011;2507;50.392;7.482;2024-03-02T02:13:40;2.20;;;2.10;;
4980;SDS011;2507;50.392;7.482;2024-03-02T02:16:06;2.83;;;2.63;;
4980;SDS011;2507;50.392;7.482;2024-03-02T02:18:32;2.87;;;2.77;;
4980;SDS011;2507;50.392;7.482;2024-03-02T02:20:57;4.37;;;3.33;;
4980;SDS011;2507;50.392;7.482;2024-03-02T02:23:23;3.53;;;3.33;;
4980;SDS011;2507;50.392;7.482;2024-03-02T02:25:48;3.40;;;3.23;;
4980;SDS011;2507;50.392;7.482;2024-03-02T02:28:13;3.53;;;3.30;;
4980;SDS011;2507;50.392;7.482;2024-03-02T02:30:38;3.70;;;3.50;;
4980;SDS011;2507;50.392;7.482;2024-03-02T02:33:04;3.90;;;3.70;;
4980;SDS011;2507;50.392;7.482;2024-03-02T02:35:29;4.27;;;3.87;;
4980;SDS011;2507;50.392;7.482;2024-03-02T02:37:55;4.27;;;3.97;;
4980;SDS011;2507;50.392;7.482;2024-03-02T02:40:21;4.83;;;4.43;;
4980;SDS011;2507;50.392;7.482;2024-03-02T02:42:47;6.10;;;4.30;;
4980;SDS011;2507;50.392;7.482;2024-03-02T02:45:13;4.50;;;4.10;;
4980;SDS011;2507;50.392;7.482;2024-03-02T02:47:39;7.10;;;4.97;;
4980;SDS011;2507;50.392;7.482;2024-03-02T02:50:08;5.20;;;4.80;;
4980;SDS011;2507;50.392;7.482;2024-03-02T02:52:34;5.23;;;4.87;;
4980;SDS011;2507;50.392;7.482;2024-03-02T02:55:02;5.83;;;5.30;;
4980;SDS011;2507;50.392;7.482;2024-03-02T02:57:28;5.67;;;5.17;;
4980;SDS011;2507;50.392;7.482;2024-03-02T02:59:56;6.30;;;5.47;;
4980;SDS011;2507;50.392;7.482;2024-03-02T03:02:21;6.10;;;5.50;;
4980;SDS011;2507;50.392;7.482;2024-03-02T03:04:46;6.03;;;5.53;;
4980;SDS011;2507;50.392;7.482;2024-03-02T03:07:12;6.10;;;5.60;;
4980;SDS011;2507;50.392;7.482;2024-03-02T03:09:37;7.57;;;6.00;;
4980;SDS011;2507;50.392;7.482;2024-03-02T03:12:03;6.47;;;5.87;;
4980;SDS011;2507;50.392;7.482;2024-03-02T03:14:29;6.43;;;5.83;;
4980;SDS011;2507;50.392;7.482;2024-03-02T03:16:54;6.70;;;6.10;;
4980;SDS011;2507;50.392;7.482;2024-03-02T03:19:19;6.63;;;6.03;;
4980;SDS011;2507;50.392;7.482;2024-03-02T03:21:45;6.53;;;5.93;;
4980;SDS011;2507;50.392;7.482;2024-03-02T03:24:10;8.17;;;7.20;;
4980;SDS011;2507;50.392;7.482;2024-03-02T03:26:35;6.67;;;6.17;;
4980;SDS011;2507;50.392;7.482;2024-03-02T03:29:01;6.70;;;6.20;;
4980;SDS011;2507;50.392;7.482;2024-03-02T03:31:27;6.83;;;6.33;;
4980;SDS011;2507;50.392;7.482;2024-03-02T03:33:52;7.97;;;6.93;;
4980;SDS011;2507;50.392;7.482;2024-03-02T03:36:18;7.07;;;6.43;;
4980;SDS011;2507;50.392;7.482;2024-03-02T03:38:43;7.30;;;6.60;;
4980;SDS011;2507;50.392;7.482;2024-03-02T03:41:08;7.10;;;6.30;;
4980;SDS011;2507;50.392;7.482;2024-03-02T03:43:34;7.77;;;7.03;;
4980;SDS011;2507;50.392;7.482;2024-03-02T03:45:59;7.77;;;7.07;;
4980;SDS011;2507;50.392;7.482;2024-03-02T03:48:24;7.67;;;6.80;;
4980;SDS011;2507;50.392;7.482;2024-03-02T03:50:55;7.70;;;7.00;;
4980;SDS011;2507;50.392;7.482;2024-03-02T03:53:20;8.43;;;7.63;;
4980;SDS011;2507;50.392;7.482;2024-03-02T03:55:47;7.90;;;7.10;;
4980;SDS011;2507;50.392;7.482;2024-03-02T03:58:14;7.53;;;6.90;;
4980;SDS011;2507;50.392;7.482;2024-03-02T04:00:39;8.67;;;7.20;;
4980;SDS011;2507;50.392;7.482;2024-03-02T04:03:04;8.00;;;7.20;;
4980;SDS011;2507;50.392;7.482;2024-03-02T04:05:30;8.10;;;7.30;;
4980;SDS011;2507;50.392;7.482;2024-03-02T04:07:55;9.30;;;8.03;;
4980;SDS011;2507;50.392;7.482;2024-03-02T04:10:20;8.60;;;7.70;;
4980;SDS011;2507;50.392;7.482;2024-03-02T04:12:45;7.47;;;6.87;;
4980;SDS011;2507;50.392;7.482;2024-03-02T04:15:11;8.97;;;8.07;;
4980;SDS011;2507;50.392;7.482;2024-03-02T04:17:36;8.50;;;7.67;;
4980;SDS011;2507;50.392;7.482;2024-03-02T04:20:02;7.60;;;6.20;;
4980;SDS011;2507;50.392;7.482;2024-03-02T04:22:30;7.37;;;6.67;;
4980;SDS011;2507;50.392;7.482;2024-03-02T04:24:55;7.03;;;6.27;;
4980;SDS011;2507;50.392;7.482;2024-03-02T04:27:20;8.10;;;7.00;;
4980;SDS011;2507;50.392;7.482;2024-03-02T04:29:46;7.30;;;6.70;;
4980;SDS011;2507;50.392;7.482;2024-03-02T04:32:11;6.90;;;6.30;;
4980;SDS011;2507;50.392;7.482;2024-03-02T04:34:36;7.63;;;6.93;;
4980;SDS011;2507;50.392;7.482;2024-03-02T04:37:01;7.67;;;6.83;;
4980;SDS011;2507;50.392;7.482;2024-03-02T04:39:27;8.70;;;6.77;;
4980;SDS011;2507;50.392;7.482;2024-03-02T04:41:52;6.50;;;5.90;;
4980;SDS011;2507;50.392;7.482;2024-03-02T04:44:17;8.80;;;7.47;;
4980;SDS011;2507;50.392;7.482;2024-03-02T04:46:42;7.83;;;6.93;;
4980;SDS011;2507;50.392;7.482;2024-03-02T04:49:08;7.93;;;7.23;;
4980;SDS011;2507;50.392;7.482;2024-03-02T04:51:33;7.20;;;6.60;;
4980;SDS011;2507;50.392;7.482;2024-03-02T04:53:59;8.13;;;6.50;;
4980;SDS011;2507;50.392;7.482;2024-03-02T04:56:24;8.00;;;7.20;;
4980;SDS011;2507;50.392;7.482;2024-03-02T04:59:05;7.00;;;6.30;;
4980;SDS011;2507;50.392;7.482;2024-03-02T05:01:31;6.70;;;6.20;;
4980;SDS011;2507;50.392;7.482;2024-03-02T05:03:57;7.57;;;6.87;;
4980;SDS011;2507;50.392;7.482;2024-03-02T05:06:22;7.60;;;6.90;;
4980;SDS011;2507;50.392;7.482;2024-03-02T05:08:48;7.40;;;6.70;;
4980;SDS011;2507;50.392;7.482;2024-03-02T05:11:14;6.67;;;6.10;;
4980;SDS011;2507;50.392;7.482;2024-03-02T05:14:08;7.80;;;7.10;;
4980;SDS011;2507;50.392;7.482;2024-03-02T05:16:34;8.37;;;7.57;;
4980;SDS011;2507;50.392;7.482;2024-03-02T05:19:00;8.60;;;7.70;;
4980;SDS011;2507;50.392;7.482;2024-03-02T05:21:26;9.57;;;8.40;;
4980;SDS011;2507;50.392;7.482;2024-03-02T05:23:51;10.03;;;8.80;;
4980;SDS011;2507;50.392;7.482;2024-03-02T05:26:16;10.97;;;8.23;;
4980;SDS011;2507;50.392;7.482;2024-03-02T05:28:42;9.60;;;8.07;;
4980;SDS011;2507;50.392;7.482;2024-03-02T05:31:10;9.87;;;7.70;;
4980;SDS011;2507;50.392;7.482;2024-03-02T05:33:37;9.20;;;8.30;;
4980;SDS011;2507;50.392;7.482;2024-03-02T05:36:03;13.43;;;8.30;;
4980;SDS011;2507;50.392;7.482;2024-03-02T05:38:29;7.43;;;6.73;;
4980;SDS011;2507;50.392;7.482;2024-03-02T05:40:54;11.10;;;7.17;;
4980;SDS011;2507;50.392;7.482;2024-03-02T05:43:20;9.53;;;8.00;;
4980;SDS011;2507;50.392;7.482;2024-03-02T05:45:45;7.90;;;7.20;;
4980;SDS011;2507;50.392;7.482;2024-03-02T05:48:10;7.87;;;7.10;;
4980;SDS011;2507;50.392;7.482;2024-03-02T05:50:35;8.43;;;7.63;;
4980;SDS011;2507;50.392;7.482;2024-03-02T05:53:01;8.30;;;7.50;;
4980;SDS011;2507;50.392;7.482;2024-03-02T05:55:26;11.13;;;8.10;;
4980;SDS011;2507;50.392;7.482;2024-03-02T05:57:51;7.53;;;6.83;;
4980;SDS011;2507;50.392;7.482;2024-03-02T06:00:31;6.73;;;6.13;;
4980;SDS011;2507;50.392;7.482;2024-03-02T06:02:57;7.77;;;7.07;;
4980;SDS011;2507;50.392;7.482;2024-03-02T06:05:22;7.90;;;6.87;;
4980;SDS011;2507;50.392;7.482;2024-03-02T06:07:48;7.50;;;6.80;;
4980;SDS011;2507;50.392;7.482;2024-03-02T06:10:13;6.30;;;5.77;;
4980;SDS011;2507;50.392;7.482;2024-03-02T06:12:39;9.03;;;7.30;;
4980;SDS011;2507;50.392;7.482;2024-03-02T06:15:04;6.90;;;6.20;;
4980;SDS011;2507;50.392;7.482;2024-03-02T06:17:30;7.10;;;6.47;;
4980;SDS011;2507;50.392;7.482;2024-03-02T06:19:55;8.57;;;7.77;;
4980;SDS011;2507;50.392;7.482;2024-03-02T06:22:20;7.70;;;7.00;;
4980;SDS011;2507;50.392;7.482;2024-03-02T06:24:47;9.63;;;6.90;;
4980;SDS011;2507;50.392;7.482;2024-03-02T06:27:13;8.07;;;7.23;;
4980;SDS011;2507;50.392;7.482;2024-03-02T06:29:38;8.37;;;7.47;;
4980;SDS011;2507;50.392;7.482;2024-03-02T06:32:03;9.73;;;8.73;;
4980;SDS011;2507;50.392;7.482;2024-03-02T06:34:29;8.90;;;8.10;;
4980;SDS011;2507;50.392;7.482;2024-03-02T06:36:54;8.43;;;7.57;;
4980;SDS011;2507;50.392;7.482;2024-03-02T06:39:20;8.90;;;8.03;;
4980;SDS011;2507;50.392;7.482;2024-03-02T06:41:45;8.57;;;7.67;;
4980;SDS011;2507;50.392;7.482;2024-03-02T06:44:12;9.13;;;8.23;;
4980;SDS011;2507;50.392;7.482;2024-03-02T06:46:37;8.30;;;7.50;;
4980;SDS011;2507;50.392;7.482;2024-03-02T06:49:03;8.60;;;7.87;;
4980;SDS011;2507;50.392;7.482;2024-03-02T06:51:29;9.17;;;7.47;;
4980;SDS011;2507;50.392;7.482;2024-03-02T06:53:54;8.03;;;7.33;;
4980;SDS011;2507;50.392;7.482;2024-03-02T06:56:20;7.57;;;6.90;;
4980;SDS011;2507;50.392;7.482;2024-03-02T06:58:45;8.50;;;7.70;;
4980;SDS011;2507;50.392;7.482;2024-03-02T07:01:11;7.93;;;7.20;;
4980;SDS011;2507;50.392;7.482;2024-03-02T07:03:36;10.13;;;8.53;;
4980;SDS011;2507;50.392;7.482;2024-03-02T07:06:01;9.20;;;8.20;;
4980;SDS011;2507;50.392;7.482;2024-03-02T07:08:27;7.30;;;6.60;;
4980;SDS011;2507;50.392;7.482;2024-03-02T07:10:52;7.27;;;6.50;;
4980;SDS011;2507;50.392;7.482;2024-03-02T07:13:17;6.30;;;5.60;;
4980;SDS011;2507;50.392;7.482;2024-03-02T07:15:42;7.73;;;6.50;;
4980;SDS011;2507;50.392;7.482;2024-03-02T07:18:19;5.70;;;5.20;;
4980;SDS011;2507;50.392;7.482;2024-03-02T07:20:44;6.37;;;5.70;;
4980;SDS011;2507;50.392;7.482;2024-03-02T07:23:10;7.57;;;6.87;;
4980;SDS011;2507;50.392;7.482;2024-03-02T07:25:35;7.77;;;5.57;;
4980;SDS011;2507;50.392;7.482;2024-03-02T07:28:00;6.80;;;6.20;;
4980;SDS011;2507;50.392;7.482;2024-03-02T07:30:26;6.23;;;5.70;;
4980;SDS011;2507;50.392;7.482;2024-03-02T07:32:51;7.63;;;6.50;;
4980;SDS011;2507;50.392;7.482;2024-03-02T07:35:16;7.97;;;6.03;;
4980;SDS011;2507;50.392;7.482;2024-03-02T07:37:43;7.40;;;6.37;;
4980;SDS011;2507;50.392;7.482;2024-03-02T07:40:08;7.30;;;6.60;;
4980;SDS011;2507;50.392;7.482;2024-03-02T07:42:39;6.20;;;5.60;;
4980;SDS011;2507;50.392;7.482;2024-03-02T07:45:05;6.90;;;6.30;;
4980;SDS011;2507;50.392;7.482;2024-03-02T07:47:31;5.93;;;5.33;;
4980;SDS011;2507;50.392;7.482;2024-03-02T07:49:57;7.70;;;5.97;;
4980;SDS011;2507;50.392;7.482;2024-03-02T07:52:23;6.17;;;5.67;;
4980;SDS011;2507;50.392;7.482;2024-03-02T07:54:48;5.27;;;4.77;;
4980;SDS011;2507;50.392;7.482;2024-03-02T07:57:13;5.10;;;4.57;;
4980;SDS011;2507;50.392;7.482;2024-03-02T07:59:38;5.63;;;5.13;;
4980;SDS011;2507;50.392;7.482;2024-03-02T08:02:04;5.90;;;5.27;;
4980;SDS011;2507;50.392;7.482;2024-03-02T08:04:29;6.70;;;6.03;;
4980;SDS011;2507;50.392;7.482;2024-03-02T08:06:54;6.13;;;5.10;;
4980;SDS011;2507;50.392;7.482;2024-03-02T08:09:20;5.73;;;4.87;;
4980;SDS011;2507;50.392;7.482;2024-03-02T08:11:45;5.67;;;5.10;;
4980;SDS011;2507;50.392;7.482;2024-03-02T08:14:10;6.00;;;5.40;;
4980;SDS011;2507;50.392;7.482;2024-03-02T08:16:36;5.43;;;4.73;;
4980;SDS011;2507;50.392;7.482;2024-03-02T08:19:01;8.30;;;5.20;;
4980;SDS011;2507;50.392;7.482;2024-03-02T08:21:26;5.57;;;4.93;;
4980;SDS011;2507;50.392;7.482;2024-03-02T08:23:55;6.10;;;5.50;;
4980;SDS011;2507;50.392;7.482;2024-03-02T08:26:20;6.00;;;5.50;;
4980;SDS011;2507;50.392;7.482;2024-03-02T08:28:45;6.50;;;4.93;;
4980;SDS011;2507;50.392;7.482;2024-03-02T08:31:11;5.43;;;4.93;;
4980;SDS011;2507;50.392;7.482;2024-03-02T08:33:36;6.17;;;5.43;;
4980;SDS011;2507;50.392;7.482;2024-03-02T08:36:02;5.47;;;4.97;;
4980;SDS011;2507;50.392;7.482;2024-03-02T08:38:28;6.63;;;5.00;;
4980;SDS011;2507;50.392;7.482;2024-03-02T08:40:54;6.73;;;5.37;;
4980;SDS011;2507;50.392;7.482;2024-03-02T08:43:19;5.57;;;5.00;;
4980;SDS011;2507;50.392;7.482;2024-03-02T08:45:45;5.37;;;4.87;;
4980;SDS011;2507;50.392;7.482;2024-03-02T08:48:10;8.40;;;5.00;;
4980;SDS011;2507;50.392;7.482;2024-03-02T08:50:36;5.23;;;4.73;;
4980;SDS011;2507;50.392;7.482;2024-03-02T08:53:02;4.90;;;4.47;;
4980;SDS011;2507;50.392;7.482;2024-03-02T08:55:28;4.90;;;4.30;;
4980;SDS011;2507;50.392;7.482;2024-03-02T08:57:54;6.63;;;4.93;;
4980;SDS011;2507;50.392;7.482;2024-03-02T09:00:20;9.53;;;5.97;;
4980;SDS011;2507;50.392;7.482;2024-03-02T09:02:45;4.70;;;4.30;;
4980;SDS011;2507;50.392;7.482;2024-03-02T09:05:11;4.10;;;3.80;;
4980;SDS011;2507;50.392;7.482;2024-03-02T09:07:36;4.50;;;4.10;;
4980;SDS011;2507;50.392;7.482;2024-03-02T09:10:03;4.20;;;3.67;;
4980;SDS011;2507;50.392;7.482;2024-03-02T09:12:29;4.60;;;4.20;;
4980;SDS011;2507;50.392;7.482;2024-03-02T09:14:55;4.07;;;3.87;;
4980;SDS011;2507;50.392;7.482;2024-03-02T09:17:20;4.70;;;4.20;;
4980;SDS011;2507;50.392;7.482;2024-03-02T09:19:46;4.30;;;3.90;;
4980;SDS011;2507;50.392;7.482;2024-03-02T09:22:11;4.30;;;4.00;;
4980;SDS011;2507;50.392;7.482;2024-03-02T09:24:36;4.97;;;4.57;;
4980;SDS011;2507;50.392;7.482;2024-03-02T09:27:02;4.00;;;3.70;;
4980;SDS011;2507;50.392;7.482;2024-03-02T09:29:27;4.73;;;3.90;;
4980;SDS011;2507;50.392;7.482;2024-03-02T09:31:52;4.63;;;4.23;;
4980;SDS011;2507;50.392;7.482;2024-03-02T09:34:17;4.27;;;3.97;;
4980;SDS011;2507;50.392;7.482;2024-03-02T09:36:43;4.03;;;3.73;;
4980;SDS011;2507;50.392;7.482;2024-03-02T09:39:08;3.83;;;3.50;;
4980;SDS011;2507;50.392;7.482;2024-03-02T09:41:35;3.53;;;3.33;;
4980;SDS011;2507;50.392;7.482;2024-03-02T09:44:04;3.37;;;3.17;;
4980;SDS011;2507;50.392;7.482;2024-03-02T09:46:30;3.70;;;3.40;;
4980;SDS011;2507;50.392;7.482;2024-03-02T09:48:55;6.00;;;3.30;;
4980;SDS011;2507;50.392;7.482;2024-03-02T09:51:21;3.37;;;3.17;;
4980;SDS011;2507;50.392;7.482;2024-03-02T09:53:47;3.93;;;3.63;;
4980;SDS011;2507;50.392;7.482;2024-03-02T09:56:12;5.13;;;3.40;;
4980;SDS011;2507;50.392;7.482;2024-03-02T09:58:41;3.97;;;3.70;;
4980;SDS011;2507;50.392;7.482;2024-03-02T10:01:06;3.83;;;3.53;;
4980;SDS011;2507;50.392;7.482;2024-03-02T10:03:32;4.33;;;2.90;;
4980;SDS011;2507;50.392;7.482;2024-03-02T10:06:18;3.03;;;2.83;;
4980;SDS011;2507;50.392;7.482;2024-03-02T10:08:46;3.70;;;3.40;;
4980;SDS011;2507;50.392;7.482;2024-03-02T10:11:26;4.97;;;3.47;;
4980;SDS011;2507;50.392;7.482;2024-03-02T10:14:11;4.77;;;3.70;;
4980;SDS011;2507;50.392;7.482;2024-03-02T10:16:38;3.53;;;3.23;;
4980;SDS011;2507;50.392;7.482;2024-03-02T10:19:20;3.10;;;2.83;;
4980;SDS011;2507;50.392;7.482;2024-03-02T10:21:47;3.43;;;3.13;;
4980;SDS011;2507;50.392;7.482;2024-03-02T10:24:14;2.80;;;2.63;;
4980;SDS011;2507;50.392;7.482;2024-03-02T10:26:39;4.87;;;3.00;;
4980;SDS011;2507;50.392;7.482;2024-03-02T10:29:05;3.20;;;2.97;;
4980;SDS011;2507;50.392;7.482;2024-03-02T10:31:30;2.67;;;2.50;;
4980;SDS011;2507;50.392;7.482;2024-03-02T10:33:55;3.97;;;3.20;;
4980;SDS011;2507;50.392;7.482;2024-03-02T10:36:22;2.93;;;2.77;;
4980;SDS011;2507;50.392;7.482;2024-03-02T10:38:48;2.87;;;2.67;;
4980;SDS011;2507;50.392;7.482;2024-03-02T10:41:17;3.70;;;2.90;;
4980;SDS011;2507;50.392;7.482;2024-03-02T10:43:43;3.40;;;3.10;;
4980;SDS011;2507;50.392;7.482;2024-03-02T10:46:09;2.77;;;2.57;;
4980;SDS011;2507;50.392;7.482;2024-03-02T10:48:36;6.10;;;4.00;;
4980;SDS011;2507;50.392;7.482;2024-03-02T10:51:05;2.33;;;2.17;;
4980;SDS011;2507;50.392;7.482;2024-03-02T10:53:31;3.60;;;3.20;;
4980;SDS011;2507;50.392;7.482;2024-03-02T10:55:57;3.30;;;3.00;;
4980;SDS011;2507;50.392;7.482;2024-03-02T10:58:27;2.20;;;2.10;;
4980;SDS011;2507;50.392;7.482;2024-03-02T11:00:57;2.83;;;2.63;;
4980;SDS011;2507;50.392;7.482;2024-03-02T11:03:27;2.17;;;2.07;;
4980;SDS011;2507;50.392;7.482;2024-03-02T11:05:54;2.30;;;2.20;;
4980;SDS011;2507;50.392;7.482;2024-03-02T11:08:19;6.10;;;2.50;;
4980;SDS011;2507;50.392;7.482;2024-03-02T11:13:23;2.40;;;2.20;;
4980;SDS011;2507;50.392;7.482;2024-03-02T11:15:53;1.60;;;1.50;;
4980;SDS011;2507;50.392;7.482;2024-03-02T11:18:24;1.00;;;0.80;;
4980;SDS011;2507;50.392;7.482;2024-03-02T11:20:50;1.40;;;1.30;;
4980;SDS011;2507;50.392;7.482;2024-03-02T11:23:16;0.97;;;0.97;;
4980;SDS011;2507;50.392;7.482;2024-03-02T11:25:41;1.50;;;1.40;;
4980;SDS011;2507;50.392;7.482;2024-03-02T11:28:07;7.37;;;4.23;;
4980;SDS011;2507;50.392;7.482;2024-03-02T11:33:06;3.37;;;3.00;;
4980;SDS011;2507;50.392;7.482;2024-03-02T11:35:32;3.20;;;2.87;;
4980;SDS011;2507;50.392;7.482;2024-03-02T11:37:58;3.43;;;1.50;;
4980;SDS011;2507;50.392;7.482;2024-03-02T11:40:26;2.07;;;1.87;;
4980;SDS011;2507;50.392;7.482;2024-03-02T11:42:53;0.90;;;0.90;;
4980;SDS011;2507;50.392;7.482;2024-03-02T11:45:22;2.10;;;2.00;;
4980;SDS011;2507;50.392;7.482;2024-03-02T11:47:51;2.53;;;2.33;;
4980;SDS011;2507;50.392;7.482;2024-03-02T11:50:35;5.10;;;4.60;;
4980;SDS011;2507;50.392;7.482;2024-03-02T11:53:08;5.53;;;3.23;;
4980;SDS011;2507;50.392;7.482;2024-03-02T11:55:35;4.10;;;3.80;;
4980;SDS011;2507;50.392;7.482;2024-03-02T11:58:01;1.50;;;1.50;;
4980;SDS011;2507;50.392;7.482;2024-03-02T12:00:27;1.60;;;1.40;;
4980;SDS011;2507;50.392;7.482;2024-03-02T12:05:28;1.20;;;1.20;;
4980;SDS011;2507;50.392;7.482;2024-03-02T12:08:02;1.30;;;1.20;;
4980;SDS011;2507;50.392;7.482;2024-03-02T12:10:30;1.63;;;1.50;;
4980;SDS011;2507;50.392;7.482;2024-03-02T12:12:59;1.47;;;1.37;;
4980;SDS011;2507;50.392;7.482;2024-03-02T12:15:32;1.47;;;1.10;;
4980;SDS011;2507;50.392;7.482;2024-03-02T12:18:04;3.73;;;1.33;;
4980;SDS011;2507;50.392;7.482;2024-03-02T12:20:30;1.10;;;1.00;;
4980;SDS011;2507;50.392;7.482;2024-03-02T12:23:00;3.70;;;1.10;;
4980;SDS011;2507;50.392;7.482;2024-03-02T12:25:27;7.23;;;1.47;;
4980;SDS011;2507;50.392;7.482;2024-03-02T12:27:54;6.13;;;1.50;;
4980;SDS011;2507;50.392;7.482;2024-03-02T12:30:21;1.10;;;1.10;;
4980;SDS011;2507;50.392;7.482;2024-03-02T12:32:47;1.40;;;1.30;;
4980;SDS011;2507;50.392;7.482;2024-03-02T12:35:13;1.67;;;0.90;;
4980;SDS011;2507;50.392;7.482;2024-03-02T12:37:45;1.10;;;1.10;;
4980;SDS011;2507;50.392;7.482;2024-03-02T12:40:11;1.20;;;1.10;;
4980;SDS011;2507;50.392;7.482;2024-03-02T12:42:37;2.03;;;1.87;;
4980;SDS011;2507;50.392;7.482;2024-03-02T12:45:03;0.97;;;0.83;;
4980;SDS011;2507;50.392;7.482;2024-03-02T12:47:29;1.20;;;1.10;;
4980;SDS011;2507;50.392;7.482;2024-03-02T12:49:55;1.47;;;1.20;;
4980;SDS011;2507;50.392;7.482;2024-03-02T12:52:21;1.70;;;1.60;;
4980;SDS011;2507;50.392;7.482;2024-03-02T12:54:46;2.60;;;1.63;;
4980;SDS011;2507;50.392;7.482;2024-03-02T12:57:16;1.90;;;1.80;;
4980;SDS011;2507;50.392;7.482;2024-03-02T12:59:45;1.50;;;1.40;;
4980;SDS011;2507;50.392;7.482;2024-03-02T13:02:16;1.80;;;1.70;;
4980;SDS011;2507;50.392;7.482;2024-03-02T13:04:43;1.57;;;1.57;;
4980;SDS011;2507;50.392;7.482;2024-03-02T13:07:08;5.50;;;2.30;;
4980;SDS011;2507;50.392;7.482;2024-03-02T13:09:35;2.90;;;2.20;;
4980;SDS011;2507;50.392;7.482;2024-03-02T13:12:00;1.57;;;1.47;;
4980;SDS011;2507;50.392;7.482;2024-03-02T13:14:26;2.20;;;2.10;;
4980;SDS011;2507;50.392;7.482;2024-03-02T13:16:51;1.60;;;1.50;;
4980;SDS011;2507;50.392;7.482;2024-03-02T13:19:17;1.53;;;1.50;;
4980;SDS011;2507;50.392;7.482;2024-03-02T13:21:46;1.80;;;1.70;;
4980;SDS011;2507;50.392;7.482;2024-03-02T13:24:11;3.10;;;2.03;;
4980;SDS011;2507;50.392;7.482;2024-03-02T13:26:36;2.50;;;1.90;;
4980;SDS011;2507;50.392;7.482;2024-03-02T13:29:02;1.53;;;1.07;;
4980;SDS011;2507;50.392;7.482;2024-03-02T13:31:27;1.80;;;1.70;;
4980;SDS011;2507;50.392;7.482;2024-03-02T13:33:52;3.37;;;2.07;;
4980;SDS011;2507;50.392;7.482;2024-03-02T13:36:18;1.90;;;1.80;;
4980;SDS011;2507;50.392;7.482;2024-03-02T13:38:44;1.90;;;1.53;;
4980;SDS011;2507;50.392;7.482;2024-03-02T13:41:09;1.67;;;1.67;;
4980;SDS011;2507;50.392;7.482;2024-03-02T13:43:36;1.50;;;1.40;;
4980;SDS011;2507;50.392;7.482;2024-03-02T13:46:03;1.73;;;1.63;;
4980;SDS011;2507;50.392;7.482;2024-03-02T13:48:28;1.00;;;1.00;;
4980;SDS011;2507;50.392;7.482;2024-03-02T13:50:54;1.20;;;1.10;;
4980;SDS011;2507;50.392;7.482;2024-03-02T13:53:19;2.20;;;2.10;;
4980;SDS011;2507;50.392;7.482;2024-03-02T13:55:45;1.50;;;1.40;;
4980;SDS011;2507;50.392;7.482;2024-03-02T13:58:10;1.70;;;1.60;;
4980;SDS011;2507;50.392;7.482;2024-03-02T14:00:37;2.10;;;1.10;;
4980;SDS011;2507;50.392;7.482;2024-03-02T14:03:03;3.60;;;1.10;;
4980;SDS011;2507;50.392;7.482;2024-03-02T14:05:30;1.23;;;1.17;;
4980;SDS011;2507;50.392;7.482;2024-03-02T14:07:55;1.63;;;1.53;;
4980;SDS011;2507;50.392;7.482;2024-03-02T14:10:20;1.40;;;1.30;;
4980;SDS011;2507;50.392;7.482;2024-03-02T14:12:47;1.53;;;1.43;;
4980;SDS011;2507;50.392;7.482;2024-03-02T14:15:13;1.40;;;1.40;;
4980;SDS011;2507;50.392;7.482;2024-03-02T14:17:38;1.77;;;1.20;;
4980;SDS011;2507;50.392;7.482;2024-03-02T14:20:04;0.90;;;0.90;;
4980;SDS011;2507;50.392;7.482;2024-03-02T14:22:30;1.30;;;1.20;;
4980;SDS011;2507;50.392;7.482;2024-03-02T14:24:55;1.13;;;1.00;;
4980;SDS011;2507;50.392;7.482;2024-03-02T14:27:21;1.00;;;0.87;;
4980;SDS011;2507;50.392;7.482;2024-03-02T14:29:46;1.30;;;1.30;;
4980;SDS011;2507;50.392;7.482;2024-03-02T14:32:11;1.53;;;1.43;;
4980;SDS011;2507;50.392;7.482;2024-03-02T14:34:37;1.20;;;1.20;;
4980;SDS011;2507;50.392;7.482;2024-03-02T14:37:03;2.60;;;2.50;;
4980;SDS011;2507;50.392;7.482;2024-03-02T14:39:28;1.50;;;1.50;;
4980;SDS011;2507;50.392;7.482;2024-03-02T14:41:54;1.20;;;1.20;;
4980;SDS011;2507;50.392;7.482;2024-03-02T14:44:20;1.80;;;1.60;;
4980;SDS011;2507;50.392;7.482;2024-03-02T14:46:46;1.87;;;1.77;;
4980;SDS011;2507;50.392;7.482;2024-03-02T14:49:13;1.57;;;1.47;;
4980;SDS011;2507;50.392;7.482;2024-03-02T14:51:39;2.10;;;2.00;;
4980;SDS011;2507;50.392;7.482;2024-03-02T14:54:04;2.07;;;1.97;;
4980;SDS011;2507;50.392;7.482;2024-03-02T14:56:30;2.43;;;2.30;;
4980;SDS011;2507;50.392;7.482;2024-03-02T14:58:55;1.93;;;1.83;;
4980;SDS011;2507;50.392;7.482;2024-03-02T15:01:21;1.73;;;1.63;;
4980;SDS011;2507;50.392;7.482;2024-03-02T15:03:48;2.80;;;1.93;;
4980;SDS011;2507;50.392;7.482;2024-03-02T15:06:14;1.63;;;1.53;;
4980;SDS011;2507;50.392;7.482;2024-03-02T15:08:39;1.77;;;1.50;;
4980;SDS011;2507;50.392;7.482;2024-03-02T15:11:06;1.43;;;1.43;;
4980;SDS011;2507;50.392;7.482;2024-03-02T15:13:32;1.37;;;1.30;;
4980;SDS011;2507;50.392;7.482;2024-03-02T15:15:58;4.23;;;2.20;;
4980;SDS011;2507;50.392;7.482;2024-03-02T15:18:23;1.43;;;1.43;;
4980;SDS011;2507;50.392;7.482;2024-03-02T15:20:49;1.90;;;1.80;;
4980;SDS011;2507;50.392;7.482;2024-03-02T15:23:14;1.70;;;1.60;;
4980;SDS011;2507;50.392;7.482;2024-03-02T15:25:39;1.87;;;1.77;;
4980;SDS011;2507;50.392;7.482;2024-03-02T15:28:05;1.97;;;1.87;;